Time;durP1;ratioP1;P1;durP2;ratioP2;P2;SDS_P1;SDS_P2;PMS_P1;PMS_P2;Temp;Humidity;BMP_temperature;BMP_pressure;BME280_temperature;BME280_humidity;BME280_pressure;Samples;Min_cycle;Max_cycle;Signal;HPM_P1;HPM_P2
2022/03/27 00:01:32;;;;;;;1999.90;999.90;;;;;;;;;;5012123;28;20366;-69
2022/03/27 00:04:18;;;;;;;1999.90;999.90;;;;;;;;;;5012550;28;20206;-69
2022/03/27 00:07:03;;;;;;;1999.90;999.90;;;;;;;;;;5012351;28;20309;-69
2022/03/27 00:09:48;;;;;;;1999.90;999.90;;;;;;;;;;5011783;28;20696;-69
2022/03/27 00:12:33;;;;;;;1999.90;999.90;;;;;;;;;;5011959;28;20203;-69
2022/03/27 00:15:18;;;;;;;1999.90;999.90;;;;;;;;;;5012206;28;20237;-69
2022/03/27 00:18:03;;;;;;;1999.90;999.90;;;;;;;;;;4992673;28;20227;-69
2022/03/27 00:20:49;;;;;;;1999.90;999.90;;;;;;;;;;4992603;28;20235;-69
2022/03/27 00:23:34;;;;;;;1999.90;999.90;;;;;;;;;;4999466;28;20209;-69
2022/03/27 00:26:20;;;;;;;1999.90;999.90;;;;;;;;;;5012246;28;20206;-69
2022/03/27 00:29:05;;;;;;;1999.90;999.90;;;;;;;;;;5011522;28;20273;-67
2022/03/27 00:31:50;;;;;;;1999.90;999.90;;;;;;;;;;5012022;28;20221;-70
2022/03/27 00:34:35;;;;;;;1999.90;999.90;;;;;;;;;;5012179;28;20255;-69
2022/03/27 00:37:22;;;;;;;1999.90;999.90;;;;;;;;;;5012118;28;20597;-69
2022/03/27 00:40:08;;;;;;;1999.90;999.90;;;;;;;;;;5011770;28;20210;-69
2022/03/27 00:42:53;;;;;;;1999.90;999.90;;;;;;;;;;5012108;28;20334;-69
2022/03/27 00:45:38;;;;;;;1999.90;999.90;;;;;;;;;;5012107;28;20207;-69
2022/03/27 00:48:23;;;;;;;1999.90;999.90;;;;;;;;;;5010991;28;20247;-70
2022/03/27 00:51:08;;;;;;;1999.90;999.90;;;;;;;;;;5012004;28;20355;-69
2022/03/27 00:53:55;;;;;;;1999.90;999.90;;;;;;;;;;5012059;28;20253;-69
2022/03/27 00:56:39;;;;;;;1999.90;999.90;;;;;;;;;;5011974;28;20215;-69
2022/03/27 00:59:24;;;;;;;1999.90;999.90;;;;;;;;;;5011238;28;20675;-69
2022/03/27 01:02:10;;;;;;;1999.90;999.90;;;;;;;;;;5011619;28;20226;-69
2022/03/27 01:04:56;;;;;;;1999.90;999.90;;;;;;;;;;5011698;28;20281;-69
2022/03/27 01:07:41;;;;;;;1999.90;999.90;;;;;;;;;;5010817;28;20242;-69
2022/03/27 01:10:26;;;;;;;1999.90;999.90;;;;;;;;;;5014189;28;20699;-69
2022/03/27 01:13:11;;;;;;;1999.90;999.90;;;;;;;;;;5015675;28;20207;-69
2022/03/27 01:15:58;;;;;;;1999.90;999.90;;;;;;;;;;5015605;28;20226;-69
2022/03/27 01:18:43;;;;;;;1999.90;999.90;;;;;;;;;;5014131;28;20231;-69
2022/03/27 01:21:30;;;;;;;1999.90;999.90;;;;;;;;;;5014056;28;20541;-69
2022/03/27 01:24:16;;;;;;;1999.90;999.90;;;;;;;;;;5015479;28;20255;-69
2022/03/27 01:27:01;;;;;;;1999.90;999.90;;;;;;;;;;5015295;28;20725;-69
2022/03/27 01:29:47;;;;;;;1999.90;999.90;;;;;;;;;;5014389;28;20203;-69
2022/03/27 01:32:32;;;;;;;1999.90;999.90;;;;;;;;;;5014981;28;20254;-69
2022/03/27 01:35:17;;;;;;;1999.90;999.90;;;;;;;;;;5015243;28;20763;-69
2022/03/27 01:38:03;;;;;;;1999.90;999.90;;;;;;;;;;5014367;28;20223;-69
2022/03/27 01:40:48;;;;;;;1999.90;999.90;;;;;;;;;;5014863;28;20238;-69
2022/03/27 01:43:33;;;;;;;1999.90;999.90;;;;;;;;;;5015039;28;20206;-69
2022/03/27 01:46:19;;;;;;;1999.90;999.90;;;;;;;;;;5015045;28;20199;-69
2022/03/27 01:49:05;;;;;;;1999.90;999.90;;;;;;;;;;5013702;28;20777;-69
2022/03/27 01:51:50;;;;;;;1999.90;999.90;;;;;;;;;;5014899;28;20227;-69
2022/03/27 01:54:36;;;;;;;1999.90;999.90;;;;;;;;;;5014939;28;20254;-69
2022/03/27 01:57:21;;;;;;;1999.90;999.90;;;;;;;;;;5014790;28;20301;-69
2022/03/27 02:00:09;;;;;;;1999.90;999.90;;;;;;;;;;5014404;28;20688;-69
2022/03/27 02:02:54;;;;;;;1999.90;999.90;;;;;;;;;;5014225;28;20342;-69
2022/03/27 02:05:39;;;;;;;1999.90;999.90;;;;;;;;;;5014738;28;20578;-70
2022/03/27 02:08:24;;;;;;;1999.90;999.90;;;;;;;;;;5013690;28;20242;-69
2022/03/27 02:11:10;;;;;;;1999.90;999.90;;;;;;;;;;5014657;28;20246;-69
2022/03/27 02:13:55;;;;;;;1999.90;999.90;;;;;;;;;;5014274;28;20226;-69
2022/03/27 02:16:41;;;;;;;1999.90;999.90;;;;;;;;;;5014073;28;20254;-68
2022/03/27 02:19:26;;;;;;;1999.90;999.90;;;;;;;;;;5013271;28;20700;-69
2022/03/27 02:22:11;;;;;;;1999.90;999.90;;;;;;;;;;5013917;28;20230;-69
2022/03/27 02:24:56;;;;;;;1999.90;999.90;;;;;;;;;;5014062;28;20203;-69
2022/03/27 02:27:42;;;;;;;1999.90;999.90;;;;;;;;;;5013628;28;20238;-69
2022/03/27 02:30:27;;;;;;;1999.90;999.90;;;;;;;;;;5014206;28;20713;-69
2022/03/27 02:33:12;;;;;;;1999.90;999.90;;;;;;;;;;5014102;28;20285;-70
2022/03/27 02:35:57;;;;;;;1999.90;999.90;;;;;;;;;;5013901;28;20210;-68
2022/03/27 02:38:42;;;;;;;1999.90;999.90;;;;;;;;;;4993655;28;20729;-69
2022/03/27 02:41:27;;;;;;;1999.90;999.90;;;;;;;;;;4994345;28;20293;-69
2022/03/27 02:44:14;;;;;;;1999.90;999.90;;;;;;;;;;4994404;28;20695;-69
2022/03/27 02:46:59;;;;;;;1999.90;999.90;;;;;;;;;;4994329;28;20707;-69
2022/03/27 02:49:44;;;;;;;1999.90;999.90;;;;;;;;;;4993501;28;20682;-69
2022/03/27 02:52:29;;;;;;;1999.90;999.90;;;;;;;;;;4993524;28;20493;-69
2022/03/27 02:55:14;;;;;;;1999.90;999.90;;;;;;;;;;5010549;28;20716;-69
2022/03/27 02:57:59;;;;;;;1999.90;999.90;;;;;;;;;;5012927;28;20226;-69
2022/03/27 03:00:46;;;;;;;1999.90;999.90;;;;;;;;;;5013524;28;20288;-68
2022/03/27 03:03:31;;;;;;;1999.90;999.90;;;;;;;;;;5013658;28;20250;-69
2022/03/27 03:06:16;;;;;;;1999.90;999.90;;;;;;;;;;5013294;28;20211;-69
2022/03/27 03:09:01;;;;;;;1999.90;999.90;;;;;;;;;;5012174;28;20273;-69
2022/03/27 03:11:46;;;;;;;1999.90;999.90;;;;;;;;;;5013213;28;20305;-68
2022/03/27 03:14:33;;;;;;;1999.90;999.90;;;;;;;;;;5012765;28;20718;-69
2022/03/27 03:17:20;;;;;;;1999.90;999.90;;;;;;;;;;5013244;28;20289;-68
2022/03/27 03:20:06;;;;;;;1999.90;999.90;;;;;;;;;;5012440;28;20202;-69
2022/03/27 03:22:52;;;;;;;1999.90;999.90;;;;;;;;;;5012970;28;20353;-69
2022/03/27 03:25:37;;;;;;;1999.90;999.90;;;;;;;;;;5012921;28;20585;-68
2022/03/27 03:28:23;;;;;;;1999.90;999.90;;;;;;;;;;5011528;28;20349;-67
2022/03/27 03:31:07;;;;;;;1999.90;999.90;;;;;;;;;;5011956;28;20582;-69
2022/03/27 03:33:54;;;;;;;1999.90;999.90;;;;;;;;;;5012448;28;20202;-68
2022/03/27 03:36:38;;;;;;;1999.90;999.90;;;;;;;;;;5012824;28;20293;-69
2022/03/27 03:39:23;;;;;;;1999.90;999.90;;;;;;;;;;5012269;28;20700;-68
2022/03/27 03:42:08;;;;;;;1999.90;999.90;;;;;;;;;;5012546;28;20816;-69
2022/03/27 03:44:53;;;;;;;1999.90;999.90;;;;;;;;;;5012841;28;20587;-69
2022/03/27 03:47:38;;;;;;;1999.90;999.90;;;;;;;;;;5012353;28;20723;-67
2022/03/27 03:50:24;;;;;;;1999.90;999.90;;;;;;;;;;5012096;28;20254;-68
2022/03/27 03:53:09;;;;;;;1999.90;999.90;;;;;;;;;;5003434;28;20685;-68
2022/03/27 03:55:55;;;;;;;1999.90;999.90;;;;;;;;;;5012949;28;20206;-69
2022/03/27 03:58:40;;;;;;;1999.90;999.90;;;;;;;;;;4992271;28;20594;-69
2022/03/27 04:01:25;;;;;;;1999.90;999.90;;;;;;;;;;4992716;28;20215;-68
2022/03/27 04:04:10;;;;;;;1999.90;999.90;;;;;;;;;;4993015;28;20199;-69
2022/03/27 04:06:56;;;;;;;1999.90;999.90;;;;;;;;;;4992925;28;20285;-69
2022/03/27 04:09:41;;;;;;;1999.90;999.90;;;;;;;;;;5004730;28;20198;-67
2022/03/27 04:12:26;;;;;;;1999.90;999.90;;;;;;;;;;5012571;28;20297;-67
2022/03/27 04:15:12;;;;;;;1999.90;999.90;;;;;;;;;;5012439;28;20209;-66
2022/03/27 04:18:00;;;;;;;1999.90;999.90;;;;;;;;;;5011437;28;20721;-69
2022/03/27 04:20:45;;;;;;;1999.90;999.90;;;;;;;;;;5012151;28;20720;-70
2022/03/27 04:23:31;;;;;;;1999.90;999.90;;;;;;;;;;5012214;28;20215;-68
2022/03/27 04:26:16;;;;;;;1999.90;999.90;;;;;;;;;;5011061;28;20390;-68
2022/03/27 04:29:02;;;;;;;1999.90;999.90;;;;;;;;;;5011527;28;20207;-68
2022/03/27 04:31:47;;;;;;;1999.90;999.90;;;;;;;;;;5012244;28;20254;-68
2022/03/27 04:34:34;;;;;;;1999.90;999.90;;;;;;;;;;5012216;28;20194;-68
2022/03/27 04:37:19;;;;;;;1999.90;999.90;;;;;;;;;;5012172;28;20226;-68
2022/03/27 04:40:06;;;;;;;1999.90;999.90;;;;;;;;;;5011867;28;20210;-69
2022/03/27 04:42:51;;;;;;;1999.90;999.90;;;;;;;;;;5011891;28;20222;-68
2022/03/27 04:45:36;;;;;;;1999.90;999.90;;;;;;;;;;5007069;28;20207;-69
2022/03/27 04:48:20;;;;;;;1999.90;999.90;;;;;;;;;;4995511;28;20226;-68
2022/03/27 04:51:05;;;;;;;1999.90;999.90;;;;;;;;;;4996112;28;20215;-69
2022/03/27 04:53:50;;;;;;;1999.90;999.90;;;;;;;;;;4996475;28;20576;-68
2022/03/27 04:56:37;;;;;;;1999.90;999.90;;;;;;;;;;4996243;28;20230;-69
2022/03/27 04:59:23;;;;;;;1999.90;999.90;;;;;;;;;;4995552;28;20207;-69
2022/03/27 05:02:08;;;;;;;1999.90;999.90;;;;;;;;;;4995986;28;20303;-69
2022/03/27 05:04:53;;;;;;;1999.90;999.90;;;;;;;;;;4996285;28;20202;-68
2022/03/27 05:07:37;;;;;;;1999.90;999.90;;;;;;;;;;4995519;28;20733;-67
2022/03/27 05:10:23;;;;;;;1999.90;999.90;;;;;;;;;;4995892;28;20802;-69
2022/03/27 05:13:09;;;;;;;1999.90;999.90;;;;;;;;;;4996070;28;20331;-68
2022/03/27 05:15:54;;;;;;;1999.90;999.90;;;;;;;;;;4995984;28;20215;-68
2022/03/27 05:18:39;;;;;;;1999.90;999.90;;;;;;;;;;4995173;28;20225;-68
2022/03/27 05:21:25;;;;;;;1999.90;999.90;;;;;;;;;;4995878;28;20211;-67
2022/03/27 05:24:10;;;;;;;1999.90;999.90;;;;;;;;;;4995627;28;20606;-66
2022/03/27 05:26:56;;;;;;;1999.90;999.90;;;;;;;;;;4995514;28;20270;-66
2022/03/27 05:29:42;;;;;;;1999.90;999.90;;;;;;;;;;4994804;28;20422;-67
2022/03/27 05:32:27;;;;;;;1999.90;999.90;;;;;;;;;;4995558;28;20710;-69
2022/03/27 05:35:12;;;;;;;1999.90;999.90;;;;;;;;;;5014985;28;20330;-69
2022/03/27 05:37:58;;;;;;;1999.90;999.90;;;;;;;;;;5014460;28;20234;-68
2022/03/27 05:40:43;;;;;;;1999.90;999.90;;;;;;;;;;4998398;28;20286;-68
2022/03/27 05:43:28;;;;;;;1999.90;999.90;;;;;;;;;;4995236;28;20254;-69
2022/03/27 05:46:14;;;;;;;1999.90;999.90;;;;;;;;;;4995506;28;20234;-69
2022/03/27 05:48:59;;;;;;;1999.90;999.90;;;;;;;;;;4994735;28;20632;-68
2022/03/27 05:51:44;;;;;;;1999.90;999.90;;;;;;;;;;5002575;28;20219;-68
2022/03/27 05:54:29;;;;;;;1999.90;999.90;;;;;;;;;;5014963;28;20227;-69
2022/03/27 05:57:14;;;;;;;1999.90;999.90;;;;;;;;;;5014540;28;20223;-69
2022/03/27 05:59:58;;;;;;;1999.90;999.90;;;;;;;;;;5012718;28;20415;-69
2022/03/27 06:02:45;;;;;;;1999.90;999.90;;;;;;;;;;5014606;28;20365;-69
2022/03/27 06:05:30;;;;;;;1999.90;999.90;;;;;;;;;;5010742;28;20705;-69
2022/03/27 06:08:15;;;;;;;1999.90;999.90;;;;;;;;;;5008760;28;20242;-70
2022/03/27 06:11:00;;;;;;;1999.90;999.90;;;;;;;;;;5014216;28;20211;-69
2022/03/27 06:13:45;;;;;;;1999.90;999.90;;;;;;;;;;5014558;28;20226;-68
2022/03/27 06:16:30;;;;;;;1999.90;999.90;;;;;;;;;;4994624;28;20293;-68
2022/03/27 06:19:16;;;;;;;1999.90;999.90;;;;;;;;;;4994178;28;20203;-69
2022/03/27 06:22:01;;;;;;;1999.90;999.90;;;;;;;;;;5002964;28;20573;-69
2022/03/27 06:24:46;;;;;;;1999.90;999.90;;;;;;;;;;5011232;28;20267;-67
2022/03/27 06:27:32;;;;;;;1999.90;999.90;;;;;;;;;;5012638;28;20807;-66
2022/03/27 06:30:18;;;;;;;1999.90;999.90;;;;;;;;;;5012896;28;20211;-67
2022/03/27 06:33:04;;;;;;;1999.90;999.90;;;;;;;;;;5014215;28;20210;-69
2022/03/27 06:35:50;;;;;;;1999.90;999.90;;;;;;;;;;5014145;28;20322;-68
2022/03/27 06:38:35;;;;;;;1999.90;999.90;;;;;;;;;;4999754;28;20305;-67
2022/03/27 06:41:20;;;;;;;1999.90;999.90;;;;;;;;;;4994390;28;20211;-68
2022/03/27 06:44:05;;;;;;;1999.90;999.90;;;;;;;;;;4994047;28;20231;-66
2022/03/27 06:46:50;;;;;;;1999.90;999.90;;;;;;;;;;4994304;28;20611;-68
2022/03/27 06:49:35;;;;;;;1999.90;999.90;;;;;;;;;;5011803;28;20286;-68
2022/03/27 06:52:22;;;;;;;1999.90;999.90;;;;;;;;;;5013879;28;20443;-67
2022/03/27 06:55:08;;;;;;;1999.90;999.90;;;;;;;;;;5013323;28;20210;-69
2022/03/27 06:57:53;;;;;;;1999.90;999.90;;;;;;;;;;5011409;28;20351;-69
2022/03/27 07:03:42;;;;;;;1999.90;999.90;;;;;;;;;;5012669;28;20804;-68
2022/03/27 07:06:27;;;;;;;1999.90;999.90;;;;;;;;;;5013234;28;20245;-68
2022/03/27 07:09:13;;;;;;;1999.90;999.90;;;;;;;;;;5010550;28;20356;-69
2022/03/27 07:11:58;;;;;;;1999.90;999.90;;;;;;;;;;5023324;28;20326;-69
2022/03/27 07:14:44;;;;;;;1999.90;999.90;;;;;;;;;;5014790;28;20211;-68
2022/03/27 07:17:29;;;;;;;1999.90;999.90;;;;;;;;;;5011515;28;20234;-68
2022/03/27 07:20:17;;;;;;;1999.90;999.90;;;;;;;;;;5010923;28;20579;-68
2022/03/27 07:23:03;;;;;;;1999.90;999.90;;;;;;;;;;5009668;28;20226;-67
2022/03/27 07:25:52;;;;;;;1999.90;999.90;;;;;;;;;;5012192;28;20210;-67
2022/03/27 07:28:37;;;;;;;1999.90;999.90;;;;;;;;;;5021579;28;20311;-68
2022/03/27 07:31:22;;;;;;;1999.90;999.90;;;;;;;;;;5029825;28;20393;-67
2022/03/27 07:34:07;;;;;;;1999.90;999.90;;;;;;;;;;5013930;28;20261;-67
2022/03/27 07:36:53;;;;;;;1999.90;999.90;;;;;;;;;;5020691;28;20245;-68
2022/03/27 07:39:38;;;;;;;1999.90;999.90;;;;;;;;;;5015768;28;20304;-69
2022/03/27 07:42:24;;;;;;;1999.90;999.90;;;;;;;;;;5020619;28;20256;-67
2022/03/27 07:45:10;;;;;;;1999.90;999.90;;;;;;;;;;5014338;28;20214;-68
2022/03/27 07:47:55;;;;;;;1999.90;999.90;;;;;;;;;;5018194;28;20225;-68
2022/03/27 07:50:41;;;;;;;1999.90;999.90;;;;;;;;;;5015888;28;20336;-68
2022/03/27 07:53:27;;;;;;;1999.90;999.90;;;;;;;;;;5011858;28;20226;-69
2022/03/27 07:56:12;;;;;;;1999.90;999.90;;;;;;;;;;5010710;28;20213;-68
2022/03/27 07:58:58;;;;;;;1999.90;999.90;;;;;;;;;;5020990;28;20244;-68
2022/03/27 08:01:43;;;;;;;1999.90;999.90;;;;;;;;;;5029136;28;20352;-69
2022/03/27 08:04:28;;;;;;;1999.90;999.90;;;;;;;;;;5018457;28;20234;-69
2022/03/27 08:07:13;;;;;;;1999.90;999.90;;;;;;;;;;5010986;28;20716;-68
2022/03/27 08:09:58;;;;;;;1999.90;999.90;;;;;;;;;;5013787;28;20216;-68
2022/03/27 08:12:43;;;;;;;1999.90;999.90;;;;;;;;;;5021957;28;20245;-68
2022/03/27 08:15:29;;;;;;;1999.90;999.90;;;;;;;;;;5016924;28;20210;-70
2022/03/27 08:18:15;;;;;;;1999.90;999.90;;;;;;;;;;5017287;28;20230;-67
2022/03/27 08:21:00;;;;;;;1999.90;999.90;;;;;;;;;;5023764;28;20709;-67
2022/03/27 08:23:44;;;;;;;1999.90;999.90;;;;;;;;;;5012953;28;20253;-69
2022/03/27 08:29:33;;;;;;;1999.90;999.90;;;;;;;;;;5012849;28;20209;-67
2022/03/27 08:32:20;;;;;;;1999.90;999.90;;;;;;;;;;5011260;28;20119;-68
2022/03/27 08:35:05;;;;;;;1999.90;999.90;;;;;;;;;;5020615;28;20702;-68
2022/03/27 08:37:50;;;;;;;1999.90;999.90;;;;;;;;;;5017804;28;20241;-69
2022/03/27 08:40:36;;;;;;;1999.90;999.90;;;;;;;;;;5010395;28;20270;-69
2022/03/27 08:43:21;;;;;;;1999.90;999.90;;;;;;;;;;5009872;28;20293;-68
2022/03/27 08:46:06;;;;;;;1999.90;999.90;;;;;;;;;;5010190;28;20418;-68
2022/03/27 08:48:53;;;;;;;1999.90;999.90;;;;;;;;;;5005298;28;20240;-69
2022/03/27 08:51:42;;;;;;;1999.90;999.90;;;;;;;;;;5012983;28;20223;-68
2022/03/27 08:54:30;;;;;;;1999.90;999.90;;;;;;;;;;5008940;28;20204;-68
2022/03/27 08:57:22;;;;;;;1999.90;999.90;;;;;;;;;;5008684;28;20284;-68
2022/03/27 09:00:08;;;;;;;1999.90;999.90;;;;;;;;;;5014801;28;20315;-70
2022/03/27 09:02:54;;;;;;;1999.90;999.90;;;;;;;;;;5005185;28;20523;-69
2022/03/27 09:05:41;;;;;;;1999.90;999.90;;;;;;;;;;5013396;28;20779;-68
2022/03/27 09:08:26;;;;;;;1999.90;999.90;;;;;;;;;;5018008;28;20249;-70
2022/03/27 09:11:15;;;;;;;1999.90;999.90;;;;;;;;;;5015590;28;20349;-69
2022/03/27 09:14:01;;;;;;;1999.90;999.90;;;;;;;;;;5008509;28;20205;-69
2022/03/27 09:17:00;;;;;;;1999.90;999.90;;;;;;;;;;5018544;28;20206;-70
2022/03/27 09:19:47;;;;;;;1999.90;999.90;;;;;;;;;;5006362;28;20718;-67
2022/03/27 09:22:34;;;;;;;1999.90;999.90;;;;;;;;;;5022509;28;20214;-68
2022/03/27 09:25:19;;;;;;;1999.90;999.90;;;;;;;;;;5013224;28;20232;-67
2022/03/27 09:28:04;;;;;;;1999.90;999.90;;;;;;;;;;5018519;28;20238;-68
2022/03/27 09:30:49;;;;;;;1999.90;999.90;;;;;;;;;;5008649;28;20581;-69
2022/03/27 09:33:47;;;;;;;1999.90;999.90;;;;;;;;;;5014575;28;20206;-68
2022/03/27 09:36:34;;;;;;;1999.90;999.90;;;;;;;;;;5012702;28;20257;-68
2022/03/27 09:39:22;;;;;;;1999.90;999.90;;;;;;;;;;5014104;28;20284;-68
2022/03/27 09:42:16;;;;;;;1999.90;999.90;;;;;;;;;;5014547;28;20226;-68
2022/03/27 09:45:15;;;;;;;1999.90;999.90;;;;;;;;;;5014256;28;20216;-68
2022/03/27 09:48:08;;;;;;;1999.90;999.90;;;;;;;;;;5014016;28;20701;-68
2022/03/27 09:50:54;;;;;;;1999.90;999.90;;;;;;;;;;5010738;28;20209;-68
2022/03/27 09:53:39;;;;;;;1999.90;999.90;;;;;;;;;;5014000;28;20228;-68
2022/03/27 09:56:30;;;;;;;1999.90;999.90;;;;;;;;;;5008679;28;20214;-68
2022/03/27 09:59:25;;;;;;;1999.90;999.90;;;;;;;;;;5013407;28;20213;-68
2022/03/27 10:02:18;;;;;;;1999.90;999.90;;;;;;;;;;5012143;28;20214;-68
2022/03/27 10:05:05;;;;;;;1999.90;999.90;;;;;;;;;;5009253;28;20343;-68
2022/03/27 10:07:50;;;;;;;1999.90;999.90;;;;;;;;;;5013643;28;20365;-68
2022/03/27 10:10:36;;;;;;;1999.90;999.90;;;;;;;;;;5014388;28;20203;-69
2022/03/27 10:13:22;;;;;;;1999.90;999.90;;;;;;;;;;5014578;28;20253;-68
2022/03/27 10:16:07;;;;;;;1999.90;999.90;;;;;;;;;;5014523;28;20217;-68
2022/03/27 10:18:53;;;;;;;1999.90;999.90;;;;;;;;;;5013618;28;20308;-69
2022/03/27 10:21:38;;;;;;;1999.90;999.90;;;;;;;;;;5014182;28;20232;-68
2022/03/27 10:24:26;;;;;;;1999.90;999.90;;;;;;;;;;5014048;28;20225;-69
2022/03/27 10:27:11;;;;;;;1999.90;999.90;;;;;;;;;;5014012;28;20272;-68
2022/03/27 10:29:59;;;;;;;1999.90;999.90;;;;;;;;;;5013565;28;20693;-68
2022/03/27 10:32:44;;;;;;;1999.90;999.90;;;;;;;;;;5013870;28;20202;-68
2022/03/27 10:35:51;;;;;;;1999.90;999.90;;;;;;;;;;5012776;28;20427;-68
2022/03/27 10:38:42;;;;;;;1999.90;999.90;;;;;;;;;;5013299;28;20227;-69
2022/03/27 10:41:30;;;;;;;1999.90;999.90;;;;;;;;;;5013941;28;20206;-69
2022/03/27 10:44:20;;;;;;;1999.90;999.90;;;;;;;;;;5013661;28;20229;-68
2022/03/27 10:47:13;;;;;;;1999.90;999.90;;;;;;;;;;5013744;28;20223;-68
2022/03/27 10:50:17;;;;;;;1999.90;999.90;;;;;;;;;;5013102;28;20340;-69
2022/03/27 10:53:07;;;;;;;1999.90;999.90;;;;;;;;;;5013843;28;20314;-69
2022/03/27 10:55:53;;;;;;;1999.90;999.90;;;;;;;;;;5013521;28;20293;-68
2022/03/27 10:58:39;;;;;;;1999.90;999.90;;;;;;;;;;5012637;28;20241;-69
2022/03/27 11:01:37;;;;;;;1999.90;999.90;;;;;;;;;;5013686;28;20210;-68
2022/03/27 11:04:25;;;;;;;1999.90;999.90;;;;;;;;;;5013368;28;20225;-69
2022/03/27 11:07:20;;;;;;;1999.90;999.90;;;;;;;;;;5013421;28;20249;-69
2022/03/27 11:10:25;;;;;;;1999.90;999.90;;;;;;;;;;5013246;28;20214;-69
2022/03/27 11:13:28;;;;;;;1999.90;999.90;;;;;;;;;;5013503;28;20206;-70
2022/03/27 11:16:14;;;;;;;1999.90;999.90;;;;;;;;;;5011048;28;20210;-68
2022/03/27 11:18:59;;;;;;;1999.90;999.90;;;;;;;;;;5012762;28;20305;-69
2022/03/27 11:21:46;;;;;;;1999.90;999.90;;;;;;;;;;5013087;28;20292;-70
2022/03/27 11:24:31;;;;;;;1999.90;999.90;;;;;;;;;;5013139;28;20306;-69
2022/03/27 11:27:31;;;;;;;1999.90;999.90;;;;;;;;;;5012904;28;20328;-68
2022/03/27 11:30:16;;;;;;;1999.90;999.90;;;;;;;;;;5012932;28;20254;-68
2022/03/27 11:33:11;;;;;;;1999.90;999.90;;;;;;;;;;5013059;28;20415;-69
2022/03/27 11:36:15;;;;;;;1999.90;999.90;;;;;;;;;;5013057;28;20254;-69
2022/03/27 11:39:04;;;;;;;1999.90;999.90;;;;;;;;;;5012221;28;20210;-68
2022/03/27 11:41:49;;;;;;;1999.90;999.90;;;;;;;;;;5012981;28;20210;-68
2022/03/27 11:47:38;;;;;;;1999.90;999.90;;;;;;;;;;5012353;28;20656;-67
2022/03/27 11:50:28;;;;;;;1999.90;999.90;;;;;;;;;;5012812;28;20198;-69
2022/03/27 11:53:14;;;;;;;1999.90;999.90;;;;;;;;;;5012072;28;20242;-68
2022/03/27 11:56:11;;;;;;;1999.90;999.90;;;;;;;;;;5012679;28;20705;-68
2022/03/27 11:59:03;;;;;;;1999.90;999.90;;;;;;;;;;5011898;28;20588;-68
2022/03/27 12:01:50;;;;;;;1999.90;999.90;;;;;;;;;;5012599;28;20226;-69
2022/03/27 12:04:49;;;;;;;1999.90;999.90;;;;;;;;;;5012371;28;20273;-68
2022/03/27 12:07:48;;;;;;;1999.90;999.90;;;;;;;;;;5011310;28;20419;-66
2022/03/27 12:10:41;;;;;;;1999.90;999.90;;;;;;;;;;5012433;28;20302;-69
2022/03/27 12:13:28;;;;;;;1999.90;999.90;;;;;;;;;;5012463;28;20210;-69
2022/03/27 12:16:17;;;;;;;1999.90;999.90;;;;;;;;;;5012141;28;20595;-69
2022/03/27 12:19:12;;;;;;;1999.90;999.90;;;;;;;;;;5011609;28;20210;-69
2022/03/27 12:21:57;;;;;;;1999.90;999.90;;;;;;;;;;5012095;28;20218;-69
2022/03/27 12:24:42;;;;;;;1999.90;999.90;;;;;;;;;;5012153;28;20348;-68
2022/03/27 12:30:36;;;;;;;1999.90;999.90;;;;;;;;;;5012260;28;20222;-69
2022/03/27 12:33:21;;;;;;;1999.90;999.90;;;;;;;;;;5012210;28;20202;-67
2022/03/27 12:36:09;;;;;;;1999.90;999.90;;;;;;;;;;5012224;28;20208;-69
2022/03/27 12:38:54;;;;;;;1999.90;999.90;;;;;;;;;;5011386;28;20357;-69
2022/03/27 12:41:42;;;;;;;1999.90;999.90;;;;;;;;;;5012207;28;20210;-69
2022/03/27 12:44:46;;;;;;;1999.90;999.90;;;;;;;;;;5012008;28;20877;-69
2022/03/27 12:47:33;;;;;;;1999.90;999.90;;;;;;;;;;5012008;28;20226;-68
2022/03/27 12:50:30;;;;;;;1999.90;999.90;;;;;;;;;;5012024;28;20245;-70
2022/03/27 12:53:24;;;;;;;1999.90;999.90;;;;;;;;;;5012098;28;20211;-69
2022/03/27 12:56:10;;;;;;;1999.90;999.90;;;;;;;;;;5011801;28;20685;-68
2022/03/27 12:58:55;;;;;;;1999.90;999.90;;;;;;;;;;5011203;28;20230;-70
2022/03/27 13:01:40;;;;;;;1999.90;999.90;;;;;;;;;;5011980;28;20333;-68
2022/03/27 13:04:26;;;;;;;1999.90;999.90;;;;;;;;;;5011875;28;20226;-68
2022/03/27 13:07:11;;;;;;;1999.90;999.90;;;;;;;;;;5015387;28;20233;-68
2022/03/27 13:09:56;;;;;;;1999.90;999.90;;;;;;;;;;5014122;28;20431;-69
2022/03/27 13:12:41;;;;;;;1999.90;999.90;;;;;;;;;;5015486;28;20210;-69
2022/03/27 13:15:35;;;;;;;1999.90;999.90;;;;;;;;;;5015617;28;20732;-68
2022/03/27 13:18:28;;;;;;;1999.90;999.90;;;;;;;;;;5014855;28;20231;-69
2022/03/27 13:21:15;;;;;;;1999.90;999.90;;;;;;;;;;5015571;28;20206;-69
2022/03/27 13:24:00;;;;;;;1999.90;999.90;;;;;;;;;;5015286;28;20226;-69
2022/03/27 13:26:46;;;;;;;1999.90;999.90;;;;;;;;;;5015406;28;20590;-69
2022/03/27 13:29:32;;;;;;;1999.90;999.90;;;;;;;;;;5014656;28;20298;-68
2022/03/27 13:32:17;;;;;;;1999.90;999.90;;;;;;;;;;5015535;28;20199;-69
2022/03/27 13:35:02;;;;;;;1999.90;999.90;;;;;;;;;;5015373;28;20242;-68
2022/03/27 13:37:51;;;;;;;1999.90;999.90;;;;;;;;;;5014790;28;20741;-69
2022/03/27 13:43:39;;;;;;;1999.90;999.90;;;;;;;;;;5015166;28;20214;-68
2022/03/27 13:46:26;;;;;;;1999.90;999.90;;;;;;;;;;5014758;28;20588;-69
2022/03/27 13:49:11;;;;;;;1999.90;999.90;;;;;;;;;;5014340;28;20210;-69
2022/03/27 13:51:56;;;;;;;1999.90;999.90;;;;;;;;;;5015036;28;20585;-67
2022/03/27 13:54:42;;;;;;;1999.90;999.90;;;;;;;;;;5014882;28;20203;-68
2022/03/27 13:57:27;;;;;;;1999.90;999.90;;;;;;;;;;5015872;28;20262;-68
2022/03/27 14:00:12;;;;;;;1999.90;999.90;;;;;;;;;;5014528;28;20226;-69
2022/03/27 14:02:57;;;;;;;1999.90;999.90;;;;;;;;;;5014754;28;20210;-68
2022/03/27 14:05:42;;;;;;;1999.90;999.90;;;;;;;;;;5014480;28;20701;-69
2022/03/27 14:08:27;;;;;;;1999.90;999.90;;;;;;;;;;5013753;28;20238;-69
2022/03/27 14:11:13;;;;;;;1999.90;999.90;;;;;;;;;;5014739;28;20689;-68
2022/03/27 14:13:59;;;;;;;1999.90;999.90;;;;;;;;;;5014611;28;20207;-68
2022/03/27 14:16:44;;;;;;;1999.90;999.90;;;;;;;;;;5014069;28;20581;-68
2022/03/27 14:19:31;;;;;;;1999.90;999.90;;;;;;;;;;5013543;28;20222;-68
2022/03/27 14:22:16;;;;;;;1999.90;999.90;;;;;;;;;;5014456;28;20211;-69
2022/03/27 14:25:01;;;;;;;1999.90;999.90;;;;;;;;;;5014269;28;20831;-68
2022/03/27 14:27:47;;;;;;;1999.90;999.90;;;;;;;;;;5013898;28;20300;-68
2022/03/27 14:30:34;;;;;;;1999.90;999.90;;;;;;;;;;5014279;28;20229;-68
2022/03/27 14:33:19;;;;;;;1999.90;999.90;;;;;;;;;;5014231;28;20756;-69
2022/03/27 14:36:04;;;;;;;1999.90;999.90;;;;;;;;;;5014294;28;20203;-69
2022/03/27 14:38:49;;;;;;;1999.90;999.90;;;;;;;;;;5013353;28;20222;-69
2022/03/27 14:41:34;;;;;;;1999.90;999.90;;;;;;;;;;5012778;28;20555;-68
2022/03/27 14:44:20;;;;;;;1999.90;999.90;;;;;;;;;;5013924;28;20215;-68
2022/03/27 14:47:06;;;;;;;1999.90;999.90;;;;;;;;;;5013928;28;20791;-68
2022/03/27 14:49:51;;;;;;;1999.90;999.90;;;;;;;;;;5012866;28;20580;-68
2022/03/27 14:52:37;;;;;;;1999.90;999.90;;;;;;;;;;5014151;28;20202;-68
2022/03/27 14:58:25;;;;;;;1999.90;999.90;;;;;;;;;;5012925;28;20234;-67
2022/03/27 15:01:12;;;;;;;1999.90;999.90;;;;;;;;;;5013850;28;20671;-68
2022/03/27 15:03:57;;;;;;;1999.90;999.90;;;;;;;;;;5013694;28;20314;-68
2022/03/27 15:06:41;;;;;;;1999.90;999.90;;;;;;;;;;5013315;28;20206;-68
2022/03/27 15:09:27;;;;;;;1999.90;999.90;;;;;;;;;;5012474;28;20406;-68
2022/03/27 15:12:14;;;;;;;1999.90;999.90;;;;;;;;;;5013631;28;20203;-68
2022/03/27 15:14:59;;;;;;;1999.90;999.90;;;;;;;;;;5013550;28;20254;-67
2022/03/27 15:17:45;;;;;;;1999.90;999.90;;;;;;;;;;5012942;28;20315;-68
2022/03/27 15:20:31;;;;;;;1999.90;999.90;;;;;;;;;;5013466;28;20334;-69
2022/03/27 15:23:16;;;;;;;1999.90;999.90;;;;;;;;;;5013670;28;20202;-68
2022/03/27 15:26:01;;;;;;;1999.90;999.90;;;;;;;;;;5013041;28;20231;-68
2022/03/27 15:28:46;;;;;;;1999.90;999.90;;;;;;;;;;5011648;28;20239;-68
2022/03/27 15:31:31;;;;;;;1999.90;999.90;;;;;;;;;;5013184;28;20206;-69
2022/03/27 15:34:17;;;;;;;1999.90;999.90;;;;;;;;;;5013281;28;20199;-69
2022/03/27 15:37:03;;;;;;;1999.90;999.90;;;;;;;;;;5012735;28;20305;-68
2022/03/27 15:39:48;;;;;;;1999.90;999.90;;;;;;;;;;5012418;28;20206;-69
2022/03/27 15:42:33;;;;;;;1999.90;999.90;;;;;;;;;;5012988;28;20246;-67
2022/03/27 15:45:18;;;;;;;1999.90;999.90;;;;;;;;;;5012837;28;20610;-69
2022/03/27 15:48:03;;;;;;;1999.90;999.90;;;;;;;;;;5012178;28;20274;-68